Terminal Aerodrome Forecast
Issued by NWS St Louis, MO

Home | Current Version | Previous Version | Text Only | Print | Product List | Glossary On
Versions: 1 2 3 4 5 6 7 8 9 10 11 12 13 14 15 16 17 18 19 20 21 22 23 24
000
FTUS43 KLSX 012300
TAFSTL
TAF
KSTL 012340Z 0200/0306 16014G24KT P6SM BKN100
     FM020300 17013G21KT P6SM -SHRA BKN060 WS018/18045KT
     FM020600 18013G20KT P6SM BKN040 WS018/20045KT
     FM021400 21014G24KT 6SM -SHRA VCTS OVC040CB
     FM021700 22014G24KT P6SM SCT040 BKN250
     FM022100 23012G20KT P6SM VCTS BKN040CB
     FM030300 36008KT P6SM -SHRA BKN030=

USA.gov is the U.S. government's official web portal to all federal, state and local government web resources and services.